Time;durP1;ratioP1;P1;durP2;ratioP2;P2;SDS_P1;SDS_P2;PMS_P1;PMS_P2;Temp;Humidity;BMP_temperature;BMP_pressure;BME280_temperature;BME280_humidity;BME280_pressure;Samples;Min_cycle;Max_cycle;Signal;HPM_P1;HPM_P2
2022/03/10 00:00:20;;;;;;;65.82;33.78;;;;;;;1.94;100.00;100773.88;5070380;28;20043;-78
2022/03/10 00:02:46;;;;;;;54.15;29.52;;;;;;;1.92;100.00;100775.56;5072423;28;20058;-78
2022/03/10 00:05:18;;;;;;;51.15;29.13;;;;;;;1.95;100.00;100777.31;5075894;28;20452;-78
2022/03/10 00:07:44;;;;;;;55.45;29.75;;;;;;;1.88;100.00;100770.41;5074288;28;20051;-78
2022/03/10 00:10:09;;;;;;;54.40;29.65;;;;;;;2.00;100.00;100791.88;5075636;28;20068;-78
2022/03/10 00:12:35;;;;;;;55.00;27.73;;;;;;;1.86;100.00;100759.25;5075379;28;20020;-78
2022/03/10 00:15:08;;;;;;;56.83;29.65;;;;;;;2.08;100.00;100798.78;5075392;28;20043;-78
2022/03/10 00:17:33;;;;;;;56.53;30.50;;;;;;;2.07;100.00;100786.81;5075403;28;20031;-78
2022/03/10 00:19:59;;;;;;;52.75;29.58;;;;;;;2.08;100.00;100788.50;5074223;28;20036;-78
2022/03/10 00:22:24;;;;;;;55.30;30.42;;;;;;;2.14;100.00;100796.25;5074142;28;20028;-78
2022/03/10 00:24:49;;;;;;;59.72;31.75;;;;;;;2.07;100.00;100784.25;5075391;28;20870;-78
2022/03/10 00:27:15;;;;;;;56.25;31.15;;;;;;;2.18;100.00;100795.41;5073925;28;20025;-78
2022/03/10 00:29:40;;;;;;;57.35;31.42;;;;;;;2.30;100.00;100810.06;5073470;28;20559;-78
2022/03/10 00:32:06;;;;;;;71.45;38.38;;;;;;;2.29;100.00;100808.34;5073683;28;20029;-78
2022/03/10 00:34:32;;;;;;;60.03;33.22;;;;;;;2.30;100.00;100810.91;5074920;28;20593;-78
2022/03/10 00:36:57;;;;;;;60.38;32.85;;;;;;;2.28;100.00;100804.91;5075133;28;20361;-79
2022/03/10 00:39:22;;;;;;;67.43;36.05;;;;;;;2.26;100.00;100801.47;5073782;28;20098;-78
2022/03/10 00:41:48;;;;;;;70.13;36.08;;;;;;;2.33;100.00;100810.94;5073315;28;20526;-79
2022/03/10 00:44:13;;;;;;;63.35;33.75;;;;;;;2.35;100.00;100813.50;5073549;28;20064;-78
2022/03/10 00:46:39;;;;;;;64.28;34.25;;;;;;;2.34;100.00;100810.09;5074327;28;20411;-78
2022/03/10 00:49:04;;;;;;;68.60;35.42;;;;;;;2.35;100.00;100816.94;5075206;28;20028;-78
2022/03/10 00:51:29;;;;;;;69.47;34.00;;;;;;;2.35;100.00;100823.78;5073351;28;20024;-78
2022/03/10 00:53:55;;;;;;;64.55;34.00;;;;;;;2.33;100.00;100821.22;5074465;28;20021;-78
2022/03/10 00:56:20;;;;;;;63.53;34.75;;;;;;;2.31;100.00;100817.78;5074696;28;20107;-79
2022/03/10 00:58:46;;;;;;;68.18;34.75;;;;;;;2.32;100.00;100821.19;5073054;28;20029;-79
2022/03/10 01:01:11;;;;;;;60.45;32.67;;;;;;;2.32;100.00;100818.63;5073170;28;20040;-78
2022/03/10 01:03:37;;;;;;;62.97;35.10;;;;;;;2.32;100.00;100822.09;5073165;28;20529;-78
2022/03/10 01:06:02;;;;;;;63.97;32.53;;;;;;;2.28;100.00;100825.50;5074593;28;20063;-78
2022/03/10 01:08:28;;;;;;;62.28;33.05;;;;;;;2.23;100.00;100829.72;5073326;28;20639;-78
2022/03/10 01:10:53;;;;;;;68.03;34.47;;;;;;;2.16;100.00;100827.97;5074110;28;20032;-78
2022/03/10 01:13:19;;;;;;;66.95;33.15;;;;;;;2.08;100.00;100821.94;5074045;28;20029;-78
2022/03/10 01:15:46;;;;;;;67.85;33.92;;;;;;;2.12;100.00;100836.50;5073924;28;20029;-78
2022/03/10 01:18:13;;;;;;;64.60;34.42;;;;;;;2.05;100.00;100825.31;5073174;28;20021;-78
2022/03/10 01:20:38;;;;;;;58.05;34.75;;;;;;;2.03;100.00;100823.59;5072722;28;20025;-78
2022/03/10 01:23:04;;;;;;;62.67;33.78;;;;;;;2.02;100.00;100827.00;5073119;28;20021;-79
2022/03/10 01:25:29;;;;;;;60.17;34.17;;;;;;;1.87;100.00;100805.50;5072964;28;20130;-78
2022/03/10 01:27:55;;;;;;;65.40;35.65;;;;;;;1.90;100.00;100823.53;5072589;28;20052;-78
2022/03/10 01:30:20;;;;;;;74.03;36.55;;;;;;;1.84;100.00;100832.88;5072546;28;20024;-78
2022/03/10 01:32:46;;;;;;;66.15;35.92;;;;;;;1.75;100.00;100831.94;5073919;28;20074;-78
2022/03/10 01:35:12;;;;;;;63.47;34.30;;;;;;;1.78;100.00;100833.69;5072663;28;20089;-78
2022/03/10 01:37:38;;;;;;;67.25;35.78;;;;;;;1.68;100.00;100831.88;5073763;28;20024;-78
2022/03/10 01:40:09;;;;;;;65.43;34.33;;;;;;;1.70;100.00;100838.75;5072566;28;20025;-78
2022/03/10 01:42:35;;;;;;;66.53;33.85;;;;;;;1.69;100.00;100839.63;5072426;28;20480;-78
2022/03/10 01:45:01;;;;;;;69.47;36.45;;;;;;;1.71;100.00;100837.91;5073689;28;20430;-78
2022/03/10 01:47:26;;;;;;;67.05;34.08;;;;;;;1.68;100.00;100829.31;5073562;28;20049;-78
2022/03/10 01:49:52;;;;;;;73.95;38.85;;;;;;;1.80;100.00;100851.69;5072184;28;20020;-78
2022/03/10 01:52:19;;;;;;;66.80;36.83;;;;;;;1.68;100.00;100829.31;5073698;28;20078;-78
2022/03/10 01:54:44;;;;;;;78.72;42.47;;;;;;;1.72;100.00;100839.63;5071918;28;20108;-78
2022/03/10 01:57:10;;;;;;;67.57;39.50;;;;;;;1.64;100.00;100823.28;5073707;28;20032;-78
2022/03/10 01:59:40;;;;;;;57.00;31.95;;;;;;;1.78;100.00;100846.53;5072172;28;20127;-78
2022/03/10 02:02:06;;;;;;;70.32;38.30;;;;;;;1.75;100.00;100841.38;5073560;28;20029;-78
2022/03/10 02:04:32;;;;;;;66.20;36.47;;;;;;;1.70;100.00;100832.78;5070715;28;20033;-78
2022/03/10 02:06:57;;;;;;;121.13;71.90;;;;;;;1.80;100.00;100854.25;5070660;28;20199;-78
2022/03/10 02:12:07;;;;;;;73.70;40.90;;;;;;;1.73;100.00;100849.06;5070934;28;20047;-78
2022/03/10 02:17:20;;;;;;;115.90;78.88;;;;;;;1.60;100.00;100857.53;5071044;28;20573;-78
2022/03/10 02:19:53;;;;;;;72.78;42.38;;;;;;;1.52;100.00;100855.69;5053570;28;20571;-78
2022/03/10 02:22:21;;;;;;;65.60;35.78;;;;;;;1.52;100.00;100868.53;5053745;28;20037;-78
2022/03/10 02:24:47;;;;;;;71.60;37.38;;;;;;;1.39;100.00;100849.59;5069611;28;20032;-78
2022/03/10 02:27:13;;;;;;;65.93;36.17;;;;;;;1.46;100.00;100875.34;5053644;28;20391;-78
2022/03/10 02:29:41;;;;;;;65.28;35.88;;;;;;;1.35;100.00;100865.78;5053395;28;20029;-78
2022/03/10 02:32:07;;;;;;;61.42;33.63;;;;;;;1.36;100.00;100881.22;5070508;28;20418;-79
2022/03/10 02:34:32;;;;;;;66.90;36.95;;;;;;;1.32;100.00;100873.50;5070655;28;20070;-78
2022/03/10 02:36:58;;;;;;;67.30;38.08;;;;;;;1.36;100.00;100877.81;5071172;28;20111;-78
2022/03/10 02:39:23;;;;;;;73.00;40.40;;;;;;;1.38;100.00;100888.94;5072681;28;20024;-78
2022/03/10 02:41:49;;;;;;;66.55;38.33;;;;;;;1.35;100.00;100888.91;5071273;28;20403;-78
2022/03/10 02:44:14;;;;;;;65.72;36.95;;;;;;;1.36;100.00;100895.78;5071393;28;20028;-78
2022/03/10 02:46:39;;;;;;;64.50;35.70;;;;;;;1.43;100.00;100893.31;5070861;28;20052;-79
2022/03/10 02:49:05;;;;;;;62.95;36.97;;;;;;;1.48;100.00;100901.91;5071167;28;20032;-78
2022/03/10 02:51:30;;;;;;;71.70;36.50;;;;;;;1.47;100.00;100900.16;5072277;28;20040;-78
2022/03/10 02:53:56;;;;;;;64.95;37.17;;;;;;;1.51;100.00;100908.75;5070950;28;20074;-77
2022/03/10 02:56:21;;;;;;;62.35;35.97;;;;;;;1.53;100.00;100913.94;5071225;28;20025;-78
2022/03/10 02:58:47;;;;;;;65.20;35.17;;;;;;;1.47;100.00;100901.88;5072183;28;20060;-77
2022/03/10 03:01:12;;;;;;;63.13;35.60;;;;;;;1.46;100.00;100895.88;5072645;28;20029;-77
2022/03/10 03:03:37;;;;;;;69.43;37.63;;;;;;;1.53;100.00;100922.50;5072318;28;20454;-78
2022/03/10 03:06:03;;;;;;;63.05;38.60;;;;;;;1.52;100.00;100925.03;5071916;28;20032;-77
2022/03/10 03:08:28;;;;;;;66.47;37.30;;;;;;;1.42;100.00;100919.78;5071096;28;20040;-77
2022/03/10 03:10:54;;;;;;;69.20;39.40;;;;;;;1.44;100.00;100928.38;5072026;28;20111;-77
2022/03/10 03:13:19;;;;;;;58.88;36.92;;;;;;;1.35;100.00;100914.56;5072281;28;20085;-78
2022/03/10 03:15:44;;;;;;;60.95;36.72;;;;;;;1.38;100.00;100923.16;5071883;28;20051;-78
2022/03/10 03:18:10;;;;;;;64.30;34.20;;;;;;;1.35;100.00;100923.16;5072106;28;20028;-78
2022/03/10 03:20:35;;;;;;;58.25;34.15;;;;;;;1.34;100.00;100921.41;5070660;28;20120;-78
2022/03/10 03:23:01;;;;;;;55.05;33.53;;;;;;;1.44;100.00;100933.53;5072007;28;20020;-77
2022/03/10 03:25:26;;;;;;;60.58;35.42;;;;;;;1.48;100.00;100945.53;5071963;28;20392;-77
2022/03/10 03:27:51;;;;;;;60.65;34.22;;;;;;;1.51;100.00;100947.28;5070483;28;20024;-77
2022/03/10 03:30:17;;;;;;;63.90;35.58;;;;;;;1.53;100.00;100953.31;5070676;28;20024;-77
2022/03/10 03:32:43;;;;;;;54.40;30.90;;;;;;;1.60;100.00;100955.09;5071967;28;20395;-77
2022/03/10 03:35:10;;;;;;;55.53;32.70;;;;;;;1.61;100.00;100954.25;5070561;28;20032;-78
2022/03/10 03:37:35;;;;;;;58.83;32.75;;;;;;;1.64;100.00;100961.97;5070733;28;20028;-77
2022/03/10 03:40:02;;;;;;;52.63;32.60;;;;;;;1.65;100.00;100955.16;5070469;28;20028;-78
2022/03/10 03:42:32;;;;;;;54.03;33.33;;;;;;;1.57;100.00;100949.91;5070391;28;20029;-77
2022/03/10 03:44:58;;;;;;;57.50;32.97;;;;;;;1.69;100.00;100969.75;5070383;28;20361;-78
2022/03/10 03:47:23;;;;;;;54.42;33.28;;;;;;;1.68;100.00;100968.84;5071718;28;20098;-77
2022/03/10 03:49:48;;;;;;;58.33;33.53;;;;;;;1.59;100.00;100963.63;5071525;28;20391;-77
2022/03/10 03:52:14;;;;;;;56.65;33.08;;;;;;;1.62;100.00;100971.38;5072002;28;20025;-77
2022/03/10 03:54:39;;;;;;;54.83;35.17;;;;;;;1.53;100.00;100957.56;5070247;28;20460;-77
2022/03/10 03:57:05;;;;;;;57.65;37.30;;;;;;;1.61;100.00;100984.19;5070253;28;20025;-77
2022/03/10 03:59:30;;;;;;;63.95;36.00;;;;;;;1.43;100.00;100970.31;5071767;28;20361;-78
2022/03/10 04:01:55;;;;;;;63.58;33.38;;;;;;;1.40;100.00;100966.84;5071510;28;20024;-78
2022/03/10 04:04:22;;;;;;;64.65;32.97;;;;;;;1.43;100.00;100987.41;5070346;28;20073;-77
2022/03/10 04:06:48;;;;;;;63.67;36.25;;;;;;;1.32;100.00;100973.59;5070029;28;20029;-78
2022/03/10 04:09:14;;;;;;;72.47;37.00;;;;;;;1.26;100.00;100971.78;5071932;28;20550;-77
2022/03/10 04:11:39;;;;;;;59.50;34.92;;;;;;;1.26;100.00;100976.91;5070315;28;20028;-77
2022/03/10 04:14:04;;;;;;;58.00;34.75;;;;;;;1.27;100.00;100994.06;5071371;28;20652;-77
2022/03/10 04:16:30;;;;;;;62.15;35.47;;;;;;;1.22;100.00;100994.00;5070225;28;20029;-77
2022/03/10 04:18:55;;;;;;;67.13;36.97;;;;;;;1.03;100.00;100975.78;5069909;28;20529;-77
2022/03/10 04:21:21;;;;;;;64.95;34.67;;;;;;;1.13;100.00;101005.84;5071930;28;20085;-77
2022/03/10 04:23:46;;;;;;;68.57;36.92;;;;;;;0.98;100.00;100993.69;5070015;28;20044;-77
2022/03/10 04:26:11;;;;;;;61.45;32.65;;;;;;;0.98;100.00;100999.66;5071337;28;20062;-77
2022/03/10 04:28:37;;;;;;;49.17;30.45;;;;;;;0.94;100.00;101005.59;5070230;28;20400;-77
2022/03/10 04:31:02;;;;;;;58.95;32.75;;;;;;;0.86;100.00;100998.63;5048472;28;20042;-78
2022/03/10 04:33:28;;;;;;;53.33;31.30;;;;;;;0.81;100.00;101008.81;5048828;28;20063;-77
2022/03/10 04:35:55;;;;;;;55.90;30.88;;;;;;;0.86;100.00;101027.69;5048604;28;20049;-77
2022/03/10 04:38:20;;;;;;;55.63;33.10;;;;;;;0.71;100.00;101012.94;5048831;28;20091;-77
2022/03/10 04:40:46;;;;;;;49.67;32.50;;;;;;;0.66;100.00;101013.72;5032121;28;20045;-77
2022/03/10 04:43:12;;;;;;;44.30;30.10;;;;;;;0.67;100.00;101013.72;5031849;28;20036;-78
2022/03/10 04:45:38;;;;;;;49.95;31.63;;;;;;;0.72;100.00;101034.34;5048527;28;20049;-77
2022/03/10 04:48:06;;;;;;;53.63;31.05;;;;;;;0.63;100.00;101024.81;5049910;28;20116;-77
2022/03/10 04:50:32;;;;;;;46.58;29.10;;;;;;;0.60;100.00;101023.88;5035462;28;20435;-77
2022/03/10 04:52:58;;;;;;;46.80;29.27;;;;;;;0.58;100.00;101026.41;5035146;28;20542;-77
2022/03/10 04:55:24;;;;;;;48.58;29.08;;;;;;;0.61;100.00;101043.56;5035569;28;20029;-77
2022/03/10 04:57:49;;;;;;;47.78;30.10;;;;;;;0.58;100.00;101051.19;5052162;28;20067;-77
2022/03/10 05:00:18;;;;;;;44.78;28.95;;;;;;;0.52;100.00;101057.09;5052360;28;20029;-77
2022/03/10 05:02:45;;;;;;;49.05;29.45;;;;;;;0.47;100.00;101059.56;5064690;28;20063;-77
2022/03/10 05:05:14;;;;;;;55.55;32.70;;;;;;;0.42;100.00;101060.31;5073188;28;20032;-77
2022/03/10 05:07:43;;;;;;;85.32;61.75;;;;;;;0.44;100.00;101074.03;5074567;28;20036;-77
2022/03/10 05:10:11;;;;;;;107.25;71.63;;;;;;;0.44;100.00;101074.03;5074558;28;20311;-77
2022/03/10 05:12:49;;;;;;;53.40;35.60;;;;;;;0.46;100.00;101085.16;5073033;28;20490;-78
2022/03/10 05:15:19;;;;;;;57.78;33.25;;;;;;;0.36;100.00;101067.91;5074238;28;20031;-77
2022/03/10 05:17:44;;;;;;;49.17;31.73;;;;;;;0.37;100.00;101069.63;5074507;28;20020;-78
2022/03/10 05:20:10;;;;;;;44.20;28.27;;;;;;;0.48;100.00;101093.75;5072844;28;20442;-77
2022/03/10 05:22:50;;;;;;;42.15;26.40;;;;;;;0.50;100.00;101095.47;5074311;28;20024;-77
2022/03/10 05:25:17;;;;;;;52.08;32.15;;;;;;;0.51;100.00;101101.50;5074164;28;20028;-78
2022/03/10 05:27:43;;;;;;;48.67;30.40;;;;;;;0.49;100.00;101095.47;5091513;28;20039;-78
2022/03/10 05:30:10;;;;;;;61.80;36.45;;;;;;;0.45;100.00;101098.81;5091535;28;20071;-78
2022/03/10 05:32:36;;;;;;;40.17;26.15;;;;;;;0.48;100.00;101107.44;5092095;28;20118;-78
2022/03/10 05:35:03;;;;;;;42.90;26.73;;;;;;;0.53;100.00;101109.22;5074530;28;20060;-77
2022/03/10 05:37:30;;;;;;;71.78;38.95;;;;;;;0.55;100.00;101107.53;5091650;28;20032;-78
2022/03/10 05:39:55;;;;;;;62.10;35.95;;;;;;;0.63;100.00;101100.81;5091453;28;20107;-77
2022/03/10 05:42:21;;;;;;;62.55;37.72;;;;;;;0.81;100.00;101121.66;5074564;28;20143;-78
2022/03/10 05:44:46;;;;;;;46.70;30.38;;;;;;;0.89;100.00;101125.22;5091540;28;20024;-77
2022/03/10 05:47:11;;;;;;;75.80;43.22;;;;;;;0.96;100.00;101129.59;5091076;28;20127;-78
2022/03/10 05:49:37;;;;;;;36.47;23.25;;;;;;;1.01;100.00;101119.41;5074582;28;20517;-77
2022/03/10 05:52:03;;;;;;;35.17;24.25;;;;;;;1.08;100.00;101133.22;5070754;28;20040;-78
2022/03/10 05:54:28;;;;;;;29.08;20.83;;;;;;;1.16;100.00;101134.19;5054179;28;20036;-78
2022/03/10 05:56:54;;;;;;;30.80;21.88;;;;;;;1.32;100.00;101148.13;5071050;28;20052;-78
2022/03/10 05:59:19;;;;;;;35.80;24.42;;;;;;;1.38;100.00;101155.91;5069967;28;20032;-77
2022/03/10 06:01:49;;;;;;;62.38;33.53;;;;;;;1.45;100.00;101155.16;5070979;28;20040;-77
2022/03/10 06:04:14;;;;;;;53.45;32.38;;;;;;;1.52;100.00;101154.44;5053843;28;20024;-77
2022/03/10 06:06:40;;;;;;;41.25;25.08;;;;;;;1.51;100.00;101155.25;5070903;28;20078;-77
2022/03/10 06:09:05;;;;;;;53.42;29.80;;;;;;;1.68;100.00;101171.75;5070898;28;20040;-77
2022/03/10 06:11:31;;;;;;;66.30;38.42;;;;;;;1.65;100.00;101158.88;5070686;28;20404;-77
2022/03/10 06:13:56;;;;;;;82.55;43.70;;;;;;;1.69;100.00;101160.66;5070631;28;20063;-77
2022/03/10 06:16:21;;;;;;;65.68;35.03;;;;;;;1.89;100.00;101181.47;5070771;28;20032;-77
2022/03/10 06:18:47;;;;;;;68.05;33.92;;;;;;;1.87;100.00;101185.72;5070724;28;20032;-77
2022/03/10 06:21:13;;;;;;;80.90;40.85;;;;;;;1.70;100.00;101170.09;5070298;28;20064;-77
2022/03/10 07:10:22;;;;;;;22.10;15.73;;;;;;;6.40;77.75;101220.47;5424404;23;20444;-78
2022/03/10 07:12:48;;;;;;;20.80;14.48;;;;;;;6.23;77.41;101205.03;4933886;29;20040;-78
2022/03/10 07:15:14;;;;;;;17.92;13.65;;;;;;;6.36;77.05;101229.13;4933601;29;20055;-78
2022/03/10 07:17:41;;;;;;;19.63;14.52;;;;;;;6.52;77.57;101232.50;4935012;29;20395;-78
2022/03/10 07:20:07;;;;;;;19.67;14.80;;;;;;;6.53;75.87;101229.03;4934780;29;20063;-79
2022/03/10 07:22:33;;;;;;;20.63;13.68;;;;;;;7.92;72.93;101228.00;4934879;29;20034;-79
2022/03/10 07:24:58;;;;;;;23.35;15.18;;;;;;;8.99;64.07;101230.13;4934898;29;20381;-79
2022/03/10 07:27:24;;;;;;;18.40;12.23;;;;;;;8.62;64.20;101234.13;4933607;29;20122;-78
2022/03/10 07:29:49;;;;;;;14.50;10.77;;;;;;;7.85;64.42;101222.03;4933563;29;20059;-78
2022/03/10 07:32:15;;;;;;;17.85;11.32;;;;;;;7.94;65.74;101240.09;4933150;29;20138;-78
2022/03/10 07:34:40;;;;;;;15.50;11.32;;;;;;;8.49;61.47;101244.66;4934942;29;20170;-78
2022/03/10 07:37:05;;;;;;;18.00;12.10;;;;;;;8.05;58.97;101233.91;4933157;29;20030;-79
2022/03/10 07:39:31;;;;;;;16.55;11.05;;;;;;;7.20;60.31;101245.03;4933637;29;20039;-79
2022/03/10 07:41:56;;;;;;;20.13;10.82;;;;;;;6.93;60.61;101237.47;4934908;29;20042;-78
2022/03/10 07:44:22;;;;;;;13.18;9.88;;;;;;;6.83;60.15;101269.50;4934578;29;20031;-78
2022/03/10 07:46:47;;;;;;;13.90;9.90;;;;;;;6.46;60.40;101261.88;4933637;29;20023;-78
2022/03/10 07:49:13;;;;;;;14.25;10.73;;;;;;;6.40;61.43;101248.94;4933104;29;20431;-79
2022/03/10 07:51:42;;;;;;;21.90;13.90;;;;;;;6.28;60.11;101254.16;4934554;29;20115;-79
2022/03/10 07:54:08;;;;;;;15.90;10.70;;;;;;;6.20;60.23;101269.75;4934269;29;20039;-78
2022/03/10 07:56:34;;;;;;;13.77;8.35;;;;;;;5.99;59.73;101276.69;4932349;29;20020;-78
2022/03/10 07:59:00;;;;;;;12.57;8.32;;;;;;;5.68;60.75;101262.00;4931728;29;20031;-79
2022/03/10 08:01:26;;;;;;;15.30;9.65;;;;;;;5.54;61.68;101271.50;4934071;29;20510;-78
2022/03/10 08:03:51;;;;;;;14.73;10.50;;;;;;;5.32;62.37;101268.06;4934356;29;20115;-78
2022/03/10 08:06:16;;;;;;;56.47;23.85;;;;;;;5.02;62.81;101264.56;4964978;28;20389;-78
2022/03/10 08:08:43;;;;;;;18.38;11.90;;;;;;;4.98;63.23;101268.00;4951555;28;20031;-78
2022/03/10 08:11:09;;;;;;;12.18;9.20;;;;;;;4.76;62.28;101267.06;4934115;29;20083;-77
2022/03/10 08:13:35;;;;;;;13.25;8.52;;;;;;;4.69;62.26;101286.84;4933193;29;20388;-78
2022/03/10 08:16:00;;;;;;;12.27;8.88;;;;;;;4.45;62.39;101282.44;4933050;29;20106;-78
2022/03/10 08:18:27;;;;;;;14.27;9.50;;;;;;;4.29;63.65;101282.38;4934384;29;20036;-78
2022/03/10 08:20:52;;;;;;;28.98;14.57;;;;;;;4.29;64.21;101254.00;4933151;29;20068;-78
2022/03/10 08:23:18;;;;;;;17.45;11.43;;;;;;;4.63;64.10;101273.91;4966382;28;20447;-78
2022/03/10 08:25:44;;;;;;;22.23;12.38;;;;;;;4.58;62.59;101267.88;4937807;29;20094;-78
2022/03/10 08:28:11;;;;;;;28.73;16.88;;;;;;;4.59;63.34;101272.16;4968436;28;20036;-78
2022/03/10 08:30:37;;;;;;;24.00;15.23;;;;;;;4.47;64.27;101260.13;4937880;29;20032;-78
2022/03/10 08:33:03;;;;;;;15.80;10.93;;;;;;;4.62;64.75;101281.66;4968402;28;20032;-77
2022/03/10 08:35:28;;;;;;;14.20;10.23;;;;;;;4.53;63.92;101279.91;4968707;28;20046;-77
2022/03/10 08:37:54;;;;;;;15.75;10.77;;;;;;;4.32;64.80;101254.00;4968915;28;20098;-77
2022/03/10 08:40:20;;;;;;;13.98;10.10;;;;;;;4.49;64.75;101266.13;4937754;29;20041;-78
2022/03/10 08:42:47;;;;;;;16.80;11.23;;;;;;;4.33;64.78;101255.72;4968652;28;20070;-77
2022/03/10 08:45:13;;;;;;;15.77;9.93;;;;;;;4.60;65.12;101280.81;4968288;28;20114;-78
2022/03/10 08:47:39;;;;;;;13.43;9.50;;;;;;;4.39;62.86;101251.47;4936256;29;20024;-78
2022/03/10 08:50:06;;;;;;;11.85;9.38;;;;;;;4.49;63.10;101283.31;4937748;29;20032;-77
2022/03/10 08:52:31;;;;;;;14.48;9.90;;;;;;;4.23;64.10;101283.19;4936327;29;20062;-78
2022/03/10 08:54:57;;;;;;;13.32;9.23;;;;;;;4.23;64.89;101275.47;4968245;28;20562;-78
2022/03/10 08:57:22;;;;;;;15.20;9.82;;;;;;;4.23;64.74;101285.78;4935975;29;20035;-78
2022/03/10 08:59:48;;;;;;;12.57;9.43;;;;;;;4.19;63.58;101286.63;4936165;29;20114;-77
2022/03/10 09:02:13;;;;;;;12.10;8.70;;;;;;;4.11;60.48;101288.28;4935825;29;20047;-77
2022/03/10 09:04:39;;;;;;;10.57;8.30;;;;;;;4.00;60.58;101291.69;4968385;28;20122;-77
2022/03/10 09:07:05;;;;;;;20.27;13.13;;;;;;;3.82;60.64;101319.88;4937508;29;20111;-77
2022/03/10 09:09:30;;;;;;;17.50;11.25;;;;;;;3.53;60.57;101305.91;4937365;29;20388;-77
2022/03/10 09:11:56;;;;;;;22.77;12.35;;;;;;;3.30;60.88;101296.25;4968086;28;20035;-77
2022/03/10 09:14:22;;;;;;;28.45;14.73;;;;;;;3.28;61.61;101302.22;4936930;29;20039;-77
2022/03/10 09:16:47;;;;;;;16.85;9.27;;;;;;;3.30;59.02;101297.97;4936838;29;20039;-77
2022/03/10 09:19:12;;;;;;;22.80;12.70;;;;;;;3.27;58.76;101292.78;4934074;29;20358;-78
2022/03/10 09:21:38;;;;;;;10.57;7.63;;;;;;;3.28;58.08;101304.81;4936860;29;20032;-78
2022/03/10 09:24:03;;;;;;;12.25;8.35;;;;;;;3.10;58.00;101300.34;4935841;29;20423;-78
2022/03/10 09:26:29;;;;;;;17.58;11.38;;;;;;;3.12;58.29;101303.78;4937056;29;20035;-78
2022/03/10 09:28:54;;;;;;;10.45;7.72;;;;;;;3.24;59.41;101315.09;4937243;29;20038;-78
2022/03/10 09:31:20;;;;;;;13.82;8.57;;;;;;;3.40;58.89;101307.50;4936575;29;20468;-78
2022/03/10 09:33:45;;;;;;;13.23;8.95;;;;;;;3.45;58.40;101318.69;4935553;29;20020;-78
2022/03/10 09:36:11;;;;;;;12.00;8.93;;;;;;;3.40;59.20;101310.06;4935407;29;20059;-78
2022/03/10 09:38:36;;;;;;;11.43;8.05;;;;;;;3.37;58.16;101313.50;4935616;29;20391;-78
2022/03/10 09:41:02;;;;;;;13.40;8.73;;;;;;;3.33;58.25;101314.31;4937013;29;20032;-77
2022/03/10 09:43:30;;;;;;;21.73;15.32;;;;;;;3.21;59.37;101307.34;4936475;29;20384;-78
2022/03/10 09:45:56;;;;;;;8.95;6.85;;;;;;;3.13;58.11;101302.94;4935378;29;20036;-78
2022/03/10 09:48:21;;;;;;;13.90;8.65;;;;;;;3.17;57.23;101313.28;4936594;29;20087;-77
2022/03/10 09:50:49;;;;;;;12.85;8.52;;;;;;;3.14;57.58;101325.28;4936764;29;20035;-77
2022/03/10 09:53:15;;;;;;;14.82;8.77;;;;;;;3.11;57.66;101308.06;4936306;28;20067;-78
2022/03/10 09:55:41;;;;;;;15.95;10.85;;;;;;;3.06;56.45;101327.75;4936481;29;20032;-77
2022/03/10 09:58:08;;;;;;;13.07;8.10;;;;;;;3.05;57.02;101320.03;4935043;29;20486;-78
2022/03/10 10:00:33;;;;;;;12.18;7.65;;;;;;;3.10;58.73;101313.22;4936230;29;20387;-78
2022/03/10 10:02:59;;;;;;;24.77;14.25;;;;;;;3.14;59.81;101309.81;4936505;29;20032;-77
2022/03/10 10:05:30;;;;;;;9.85;8.00;;;;;;;3.33;57.92;101316.00;4934852;28;20032;-78
2022/03/10 10:08:01;;;;;;;15.88;9.40;;;;;;;3.33;59.35;101329.78;4935064;29;20123;-78
2022/03/10 10:10:27;;;;;;;;;;;;;;;3.37;60.33;101334.09;4935061;29;20044;-78
2022/03/10 10:12:52;;;;;;;12.73;8.30;;;;;;;3.32;59.29;101316.84;4935380;29;20275;-78
2022/03/10 10:15:18;;;;;;;22.95;12.23;;;;;;;3.31;60.05;101313.44;4934430;29;20035;-78
2022/03/10 10:17:44;;;;;;;15.05;9.88;;;;;;;3.31;60.15;101302.25;4934738;29;20123;-78
2022/03/10 10:20:10;;;;;;;36.72;16.88;;;;;;;3.40;61.16;101304.91;4934593;29;20032;-78
2022/03/10 10:22:35;;;;;;;76.00;30.58;;;;;;;3.59;61.02;101331.72;4934673;29;20030;-78
2022/03/10 10:25:05;;;;;;;101.03;38.10;;;;;;;3.46;59.84;101289.53;4934711;29;20028;-78
2022/03/10 10:27:32;;;;;;;16.73;9.30;;;;;;;3.66;59.10;101313.72;4934354;29;20032;-78
2022/03/10 10:30:00;;;;;;;13.82;9.07;;;;;;;3.63;58.62;101315.44;4934319;29;20032;-78
2022/03/10 10:32:44;;;;;;;12.82;9.40;;;;;;;3.61;59.66;101328.28;4935674;29;20027;-78
2022/03/10 10:35:15;;;;;;;12.23;9.48;;;;;;;3.49;60.00;101315.31;4934282;29;20028;-78
2022/03/10 10:37:44;;;;;;;17.88;9.57;;;;;;;3.56;59.67;101317.09;4935770;29;20032;-78
2022/03/10 10:40:10;;;;;;;19.88;13.13;;;;;;;3.57;58.06;101328.25;4934060;29;20511;-78
2022/03/10 10:42:39;;;;;;;46.30;20.13;;;;;;;3.61;55.54;101312.84;4935663;29;20032;-78
2022/03/10 10:45:26;;;;;;;28.50;14.88;;;;;;;3.66;55.57;101318.88;4934014;29;20028;-78
2022/03/10 10:48:02;;;;;;;23.63;12.63;;;;;;;3.64;56.16;101314.59;4934231;29;20043;-78
2022/03/10 10:50:29;;;;;;;31.73;16.15;;;;;;;3.58;54.78;101325.72;4935066;29;20027;-78
2022/03/10 10:52:55;;;;;;;44.90;22.42;;;;;;;3.56;54.85;101317.09;4933969;29;20039;-78
2022/03/10 10:55:20;;;;;;;23.48;12.77;;;;;;;3.54;50.30;101308.50;4934034;28;20035;-78
2022/03/10 10:57:46;;;;;;;14.35;9.05;;;;;;;3.58;49.22;101323.13;4934149;29;20035;-78
2022/03/10 11:00:13;;;;;;;11.80;9.23;;;;;;;3.56;48.86;101316.22;4932449;29;20377;-78
2022/03/10 11:02:43;;;;;;;13.50;9.10;;;;;;;3.49;49.66;101320.44;4932919;29;20044;-78
2022/03/10 11:05:11;;;;;;;18.17;10.38;;;;;;;3.59;51.68;101311.97;4916934;29;20040;-78
2022/03/10 11:07:39;;;;;;;20.70;12.60;;;;;;;3.68;53.02;101335.22;4932809;29;20032;-78
2022/03/10 11:10:07;;;;;;;15.77;10.80;;;;;;;3.65;51.99;101303.41;4932427;29;20051;-78
2022/03/10 11:12:34;;;;;;;20.10;12.55;;;;;;;3.63;51.97;101313.72;4916491;29;20066;-78
2022/03/10 11:15:00;;;;;;;11.30;7.57;;;;;;;3.68;49.12;101316.34;4916735;29;20142;-78
2022/03/10 11:17:27;;;;;;;12.85;8.65;;;;;;;3.70;47.67;101306.91;4932468;29;20620;-78
2022/03/10 11:19:56;;;;;;;14.13;8.55;;;;;;;3.64;46.73;101292.25;4916683;29;20076;-78
2022/03/10 11:23:02;;;;;;;25.58;14.38;;;;;;;3.80;47.33;101329.31;4916419;29;20126;-78
2022/03/10 11:25:42;;;;;;;39.17;22.00;;;;;;;3.83;45.83;101308.72;4916403;29;20048;-78
2022/03/10 11:28:22;;;;;;;32.60;18.08;;;;;;;3.85;45.96;101309.59;4932497;29;20489;-78
2022/03/10 11:30:50;;;;;;;12.55;8.02;;;;;;;3.74;48.19;101288.88;4916327;29;20155;-78
2022/03/10 11:33:16;;;;;;;16.60;10.60;;;;;;;3.85;47.87;101296.72;4932234;29;20031;-78
2022/03/10 11:35:47;;;;;;;17.02;12.40;;;;;;;3.87;45.69;101301.88;4932415;29;20078;-77
2022/03/10 11:38:14;;;;;;;13.43;11.05;;;;;;;3.83;45.90;101319.00;4934102;29;20091;-78
2022/03/10 11:40:45;;;;;;;12.70;9.65;;;;;;;3.77;45.23;101313.84;4933332;28;20036;-77
2022/03/10 11:43:17;;;;;;;20.70;13.82;;;;;;;3.66;44.38;101300.00;4933583;29;20035;-78
2022/03/10 11:45:43;;;;;;;22.92;13.60;;;;;;;3.65;45.73;101295.69;4934858;29;20112;-78
2022/03/10 11:48:23;;;;;;;15.75;10.70;;;;;;;3.84;48.00;101319.91;4933547;29;20539;-78
2022/03/10 11:50:50;;;;;;;25.70;15.75;;;;;;;3.80;48.81;101303.56;4934699;29;20035;-78
2022/03/10 11:53:15;;;;;;;22.85;13.95;;;;;;;3.75;47.03;101294.94;4932864;29;20055;-78
2022/03/10 11:55:51;;;;;;;13.65;8.48;;;;;;;3.76;43.59;101299.22;4934737;29;20381;-78
2022/03/10 11:58:30;;;;;;;17.35;10.95;;;;;;;3.83;45.59;101310.44;4934706;29;20484;-78
2022/03/10 12:00:59;;;;;;;15.13;10.77;;;;;;;3.87;46.46;101295.00;4937236;29;20043;-78
2022/03/10 12:03:24;;;;;;;15.57;8.98;;;;;;;3.91;46.51;101298.47;4936697;29;20123;-78